Time;durP1;ratioP1;P1;durP2;ratioP2;P2;SDS_P1;SDS_P2;PMS_P1;PMS_P2;Temp;Humidity;BMP_temperature;BMP_pressure;BME280_temperature;BME280_humidity;BME280_pressure;Samples;Min_cycle;Max_cycle;Signal;HPM_P1;HPM_P2
2022/07/11 00:00:11;;;;;;;4.10;1.90;;;;;;;13.46;57.90;98945.83;105960;1279;99762;-64
2022/07/11 00:02:59;;;;;;;6.70;1.50;;;;;;;13.46;57.91;98945.85;105993;1279;115602;-64
2022/07/11 00:05:27;;;;;;;3.80;1.30;;;;;;;13.44;57.95;98944.48;105982;1278;99352;-65
2022/07/11 00:07:55;;;;;;;5.00;1.40;;;;;;;13.43;58.08;98943.30;105981;1279;108370;-65
2022/07/11 00:10:23;;;;;;;4.30;1.20;;;;;;;13.45;58.20;98946.86;105881;1279;99331;-63
2022/07/11 00:12:52;;;;;;;2.40;1.10;;;;;;;13.45;57.96;98942.22;105876;1278;99266;-63
2022/07/11 00:15:20;;;;;;;4.50;1.20;;;;;;;13.43;58.28;98941.83;105906;1278;112800;-63
2022/07/11 00:17:48;;;;;;;4.70;1.40;;;;;;;13.41;58.20;98940.20;105892;1279;99344;-63
2022/07/11 00:20:17;;;;;;;3.60;1.30;;;;;;;13.38;58.37;98943.67;105964;1279;107841;-62
2022/07/11 00:22:45;;;;;;;7.60;1.30;;;;;;;13.38;58.44;98938.30;105962;1279;99253;-63
2022/07/11 00:25:13;;;;;;;6.50;1.70;;;;;;;13.37;58.38;98935.41;105933;1279;99298;-62
2022/07/11 00:27:40;;;;;;;3.90;1.40;;;;;;;13.37;58.52;98936.84;105888;1279;113562;-64
2022/07/11 00:30:16;;;;;;;4.10;1.80;;;;;;;13.37;58.72;98938.36;105860;1279;99197;-64
2022/07/11 00:32:44;;;;;;;4.80;1.70;;;;;;;13.39;58.66;98940.68;105857;1279;107862;-65
2022/07/11 00:35:12;;;;;;;5.60;1.60;;;;;;;13.42;58.77;98936.95;105875;1278;99312;-65
2022/07/11 00:37:40;;;;;;;7.60;1.30;;;;;;;13.44;58.74;98941.58;105902;1279;99298;-65
2022/07/11 00:40:09;;;;;;;4.60;1.30;;;;;;;13.45;58.83;98938.70;105846;1279;113743;-63
2022/07/11 00:42:38;;;;;;;5.10;1.50;;;;;;;13.44;58.78;98941.64;105940;1278;97727;-63
2022/07/11 00:45:07;;;;;;;5.50;1.50;;;;;;;13.42;58.97;98938.19;105885;1279;107677;-63
2022/07/11 00:47:36;;;;;;;3.00;1.80;;;;;;;13.42;58.85;98938.20;105888;1279;99313;-65
2022/07/11 00:50:05;;;;;;;5.60;1.80;;;;;;;13.39;58.94;98937.17;105927;1278;99252;-64
2022/07/11 00:52:35;;;;;;;4.50;1.60;;;;;;;13.38;59.11;98935.45;105873;1279;112483;-65
2022/07/11 00:55:06;;;;;;;6.00;1.70;;;;;;;13.40;59.20;98939.61;105934;1279;99330;-65
2022/07/11 00:57:36;;;;;;;3.30;1.50;;;;;;;13.40;59.22;98937.06;105806;1279;108406;-66
2022/07/11 01:00:06;;;;;;;4.90;1.70;;;;;;;13.42;59.19;98936.62;105905;1278;98362;-64
2022/07/11 01:02:34;;;;;;;3.00;1.40;;;;;;;13.43;59.18;98938.67;105874;1278;99887;-65
2022/07/11 01:05:02;;;;;;;6.00;1.90;;;;;;;13.42;59.33;98934.81;105900;1279;115833;-64
2022/07/11 01:07:31;;;;;;;7.10;2.00;;;;;;;13.40;59.35;98931.00;105910;1279;99260;-63
2022/07/11 01:09:59;;;;;;;4.80;1.90;;;;;;;13.37;59.24;98931.42;105894;1279;107911;-65
2022/07/11 01:12:28;;;;;;;8.60;2.10;;;;;;;13.33;59.39;98935.25;105777;1279;99260;-64
2022/07/11 01:14:59;;;;;;;6.20;2.10;;;;;;;13.29;59.47;98938.71;105884;1278;96633;-64
2022/07/11 01:17:29;;;;;;;5.80;1.70;;;;;;;13.29;59.56;98940.89;105870;1279;113289;-64
2022/07/11 01:19:57;;;;;;;5.80;1.70;;;;;;;13.29;59.51;98936.09;105904;1279;97943;-64
2022/07/11 01:22:28;;;;;;;7.30;1.80;;;;;;;13.27;59.63;98936.56;105913;1278;106497;-64
2022/07/11 01:24:56;;;;;;;6.20;1.70;;;;;;;13.26;59.63;98938.30;105899;1278;99382;-65
2022/07/11 01:27:25;;;;;;;3.80;1.70;;;;;;;13.23;59.77;98942.27;105913;1279;99331;-65
2022/07/11 01:29:54;;;;;;;3.40;1.50;;;;;;;13.21;59.88;98936.70;105867;1279;111694;-64
2022/07/11 01:32:22;;;;;;;7.20;2.00;;;;;;;13.21;59.91;98940.81;105953;1279;99211;-64
2022/07/11 01:34:50;;;;;;;4.10;1.70;;;;;;;13.20;59.76;98938.61;105918;1279;108029;-64
2022/07/11 01:37:18;;;;;;;3.10;1.40;;;;;;;13.18;60.01;98937.71;105938;1279;99340;-64
2022/07/11 01:39:46;;;;;;;4.80;2.10;;;;;;;13.17;60.02;98941.20;105784;1279;99190;-64
2022/07/11 01:42:14;;;;;;;5.60;2.50;;;;;;;13.15;60.22;98944.96;105802;1277;113100;-63
2022/07/11 01:44:42;;;;;;;4.80;2.00;;;;;;;13.12;60.13;98939.32;105977;1279;99281;-65
2022/07/11 01:47:10;;;;;;;4.50;2.00;;;;;;;13.10;60.14;98941.02;105936;1279;108315;-64
2022/07/11 01:49:39;;;;;;;2.30;1.30;;;;;;;13.07;60.39;98942.37;105877;1278;96628;-64
2022/07/11 01:52:09;;;;;;;2.50;1.70;;;;;;;13.03;60.42;98944.39;105910;1278;99103;-64
2022/07/11 01:54:36;;;;;;;4.80;1.70;;;;;;;13.00;60.31;98943.72;105983;1279;112893;-64
2022/07/11 01:57:05;;;;;;;3.40;1.40;;;;;;;12.98;60.54;98945.44;105973;1279;99240;-64
2022/07/11 01:59:35;;;;;;;9.70;2.00;;;;;;;12.95;60.64;98945.67;105975;1279;108249;-64
2022/07/11 02:02:04;;;;;;;5.30;1.70;;;;;;;12.94;60.68;98950.97;105882;1279;96625;-64
2022/07/11 02:04:33;;;;;;;8.20;2.10;;;;;;;12.93;60.85;98952.29;105921;1279;96557;-64
2022/07/11 02:07:01;;;;;;;4.10;2.00;;;;;;;12.91;60.61;98950.81;105876;1279;113059;-65
2022/07/11 02:09:29;;;;;;;2.70;1.50;;;;;;;12.89;60.88;98952.04;105864;1279;99330;-65
2022/07/11 02:11:56;;;;;;;5.40;1.80;;;;;;;12.87;60.87;98955.82;105859;1279;108349;-64
2022/07/11 02:14:24;;;;;;;3.70;2.20;;;;;;;12.85;61.10;98954.95;105933;1279;99298;-63
2022/07/11 02:16:52;;;;;;;8.10;2.40;;;;;;;12.83;61.04;98952.39;105968;1279;96723;-64
2022/07/11 02:19:21;;;;;;;5.40;1.90;;;;;;;12.80;61.13;98947.82;105895;1279;113257;-63
2022/07/11 02:21:49;;;;;;;6.80;2.20;;;;;;;12.79;61.33;98951.30;105924;1279;99257;-58
2022/07/11 02:24:18;;;;;;;5.90;1.90;;;;;;;12.79;61.17;98954.30;105887;1279;108240;-65
2022/07/11 02:26:46;;;;;;;7.50;2.50;;;;;;;12.77;61.19;98954.83;105856;1279;99301;-63
2022/07/11 02:29:14;;;;;;;2.70;1.90;;;;;;;12.73;61.35;98955.35;105878;1279;96709;-61
2022/07/11 02:31:42;;;;;;;9.10;2.50;;;;;;;12.74;61.30;98954.57;105826;1279;112599;-63
2022/07/11 02:34:10;;;;;;;6.20;2.20;;;;;;;12.75;61.48;98952.67;105887;1279;99253;-62
2022/07/11 02:36:38;;;;;;;3.70;2.20;;;;;;;12.77;61.57;98950.26;105841;1279;108128;-64
2022/07/11 02:39:07;;;;;;;3.80;2.20;;;;;;;12.76;61.59;98951.89;105866;1279;99314;-65
2022/07/11 02:41:35;;;;;;;5.10;2.50;;;;;;;12.76;61.57;98951.94;105797;1279;99322;-62
2022/07/11 02:44:03;;;;;;;6.80;3.00;;;;;;;12.75;61.70;98950.78;105861;1279;113087;-64
2022/07/11 02:46:31;;;;;;;5.40;2.00;;;;;;;12.74;61.76;98947.45;105865;1279;96580;-62
2022/07/11 02:48:59;;;;;;;7.00;2.00;;;;;;;12.73;61.72;98950.54;105699;1279;108336;-65
2022/07/11 02:51:27;;;;;;;6.70;2.20;;;;;;;12.73;61.76;98952.88;105800;1279;99333;-61
2022/07/11 02:53:55;;;;;;;5.80;2.00;;;;;;;12.72;61.85;98957.39;105894;1279;99220;-63
2022/07/11 02:56:23;;;;;;;3.10;1.90;;;;;;;12.68;61.71;98958.77;105872;1279;113320;-63
2022/07/11 02:58:51;;;;;;;4.60;1.80;;;;;;;12.62;61.67;98963.40;105875;1278;99435;-65
2022/07/11 03:01:19;;;;;;;4.20;1.80;;;;;;;12.57;61.89;98965.39;105852;1279;108284;-63
2022/07/11 03:03:47;;;;;;;3.50;2.00;;;;;;;12.55;61.95;98963.96;105775;1279;99305;-65
2022/07/11 03:06:16;;;;;;;4.90;2.00;;;;;;;12.54;62.16;98959.60;105893;1279;96653;-64
2022/07/11 03:08:44;;;;;;;5.20;2.20;;;;;;;12.53;61.99;98962.14;105839;1279;112764;-64
2022/07/11 03:11:12;;;;;;;4.10;2.00;;;;;;;12.51;62.17;98958.25;105886;1279;99074;-65
2022/07/11 03:13:40;;;;;;;8.30;2.00;;;;;;;12.52;62.30;98961.04;105767;1279;108366;-63
2022/07/11 03:16:09;;;;;;;6.10;2.30;;;;;;;12.52;62.33;98961.91;105904;1278;99374;-65
2022/07/11 03:18:37;;;;;;;8.10;2.30;;;;;;;12.52;62.20;98966.20;105881;1279;96723;-65
2022/07/11 03:21:05;;;;;;;6.60;2.00;;;;;;;12.49;62.31;98966.19;105916;1278;112770;-63
2022/07/11 03:23:34;;;;;;;3.20;2.00;;;;;;;12.48;62.28;98966.48;105870;1279;99195;-64
2022/07/11 03:26:02;;;;;;;4.10;2.30;;;;;;;12.45;62.32;98972.27;105843;1279;108489;-65
2022/07/11 03:28:31;;;;;;;6.70;2.40;;;;;;;12.42;62.35;98977.32;105899;1279;96701;-62
2022/07/11 03:30:58;;;;;;;6.80;2.60;;;;;;;12.40;62.47;98979.23;105911;1279;96656;-64
2022/07/11 03:33:27;;;;;;;8.70;2.40;;;;;;;12.37;62.46;98977.34;105862;1279;112291;-65
2022/07/11 03:35:55;;;;;;;5.60;2.00;;;;;;;12.34;62.51;98977.73;105880;1279;96885;-64
2022/07/11 03:38:24;;;;;;;5.90;2.00;;;;;;;12.34;62.69;98978.30;105919;1279;108503;-65
2022/07/11 03:40:53;;;;;;;5.20;2.20;;;;;;;12.32;62.82;98979.30;105890;1279;99199;-64
2022/07/11 03:43:23;;;;;;;4.40;2.30;;;;;;;12.31;62.71;98978.87;105878;1279;99222;-64
2022/07/11 03:45:50;;;;;;;10.10;2.60;;;;;;;12.30;62.77;98981.34;105895;1278;111305;-63
2022/07/11 03:48:19;;;;;;;7.70;3.50;;;;;;;12.28;62.95;98982.13;105568;1279;419172;-64
2022/07/11 03:50:47;;;;;;;6.90;3.20;;;;;;;12.30;62.97;98982.36;105831;1279;108390;-63
2022/07/11 03:53:16;;;;;;;7.30;3.20;;;;;;;12.31;62.94;98981.34;105836;1279;97652;-63
2022/07/11 03:55:44;;;;;;;10.70;3.20;;;;;;;12.31;63.10;98983.70;105907;1279;99306;-64
2022/07/11 03:58:12;;;;;;;13.20;3.40;;;;;;;12.32;62.93;98987.35;105774;1279;113293;-64
2022/07/11 04:00:40;;;;;;;5.40;2.90;;;;;;;12.31;63.04;98986.77;105943;1279;96532;-63
2022/07/11 04:03:08;;;;;;;8.60;3.10;;;;;;;12.30;63.17;98986.83;105836;1279;108024;-65
2022/07/11 04:05:37;;;;;;;6.10;2.70;;;;;;;12.28;63.16;98984.81;105858;1279;99340;-66
2022/07/11 04:08:05;;;;;;;8.80;3.40;;;;;;;12.27;63.25;98983.83;105814;1279;99305;-63
2022/07/11 04:10:33;;;;;;;10.20;3.50;;;;;;;12.29;63.37;98984.02;105860;1279;113444;-64
2022/07/11 04:13:01;;;;;;;11.00;3.50;;;;;;;12.31;63.29;98983.33;105921;1279;99366;-65
2022/07/11 04:15:29;;;;;;;7.00;3.30;;;;;;;12.33;63.40;98986.00;105903;1279;108938;-66
2022/07/11 04:17:56;;;;;;;6.70;3.10;;;;;;;12.36;63.52;98986.46;105858;1279;99226;-64
2022/07/11 04:20:25;;;;;;;7.10;3.20;;;;;;;12.39;63.30;98986.29;105842;1279;99263;-65
2022/07/11 04:22:53;;;;;;;6.70;3.00;;;;;;;12.39;63.39;98988.02;105940;1279;113782;-63
2022/07/11 04:25:21;;;;;;;11.10;3.80;;;;;;;12.42;63.40;98987.13;105923;1278;99241;-64
2022/07/11 04:27:50;;;;;;;12.40;4.20;;;;;;;12.44;63.60;98986.23;105869;1279;108571;-64
2022/07/11 04:30:18;;;;;;;7.10;3.30;;;;;;;12.47;63.62;98990.54;105907;1279;99253;-64
2022/07/11 04:32:46;;;;;;;8.50;3.40;;;;;;;12.52;63.90;98990.19;105942;1279;99336;-65
2022/07/11 04:35:14;;;;;;;8.70;3.20;;;;;;;12.57;63.79;98987.66;105845;1279;112353;-64
2022/07/11 04:37:44;;;;;;;10.00;3.00;;;;;;;12.62;63.75;98996.14;105890;1279;99229;-64
2022/07/11 04:40:14;;;;;;;8.30;2.70;;;;;;;12.65;63.77;98994.27;105904;1279;107895;-63
2022/07/11 04:42:42;;;;;;;7.70;3.00;;;;;;;12.66;63.82;98991.85;105852;1279;99241;-65
2022/07/11 04:45:10;;;;;;;6.80;3.00;;;;;;;12.68;63.90;98989.91;105925;1279;99327;-66
2022/07/11 04:47:38;;;;;;;8.30;2.60;;;;;;;12.71;63.93;98990.41;105893;1279;112303;-66
2022/07/11 04:50:07;;;;;;;7.70;2.80;;;;;;;12.74;63.98;98992.67;105902;1278;99900;-66
2022/07/11 04:52:35;;;;;;;6.00;2.50;;;;;;;12.76;64.02;98991.59;105866;1279;107149;-66
2022/07/11 04:55:05;;;;;;;10.60;3.30;;;;;;;12.79;64.21;98989.73;105910;1279;96641;-64
2022/07/11 04:57:32;;;;;;;10.90;3.30;;;;;;;12.84;64.09;98992.15;106011;1279;99333;-64
2022/07/11 05:00:00;;;;;;;6.20;2.70;;;;;;;12.89;64.07;98995.47;105923;1279;113321;-64
2022/07/11 05:02:28;;;;;;;7.90;3.20;;;;;;;12.92;64.11;98992.60;105821;1279;99343;-64
2022/07/11 05:04:57;;;;;;;7.50;3.00;;;;;;;12.95;64.07;98990.36;105925;1279;108553;-64
2022/07/11 05:07:24;;;;;;;5.10;2.70;;;;;;;12.97;64.02;98992.17;105855;1279;99926;-65
2022/07/11 05:09:52;;;;;;;7.30;2.40;;;;;;;12.99;64.13;98992.70;105967;1279;99325;-65
2022/07/11 05:12:20;;;;;;;3.80;2.50;;;;;;;13.03;64.24;98988.95;105907;1279;113403;-64
2022/07/11 05:14:49;;;;;;;4.10;2.20;;;;;;;13.09;64.34;98992.73;105919;1279;99076;-64
2022/07/11 05:17:17;;;;;;;5.90;2.10;;;;;;;13.16;64.23;98992.20;105963;1279;108400;-64
2022/07/11 05:19:45;;;;;;;8.20;2.40;;;;;;;13.21;64.32;98992.66;105880;1279;99390;-66
2022/07/11 05:22:13;;;;;;;7.10;2.80;;;;;;;13.28;64.34;98995.80;105945;1279;99242;-66
2022/07/11 05:24:41;;;;;;;8.10;2.60;;;;;;;13.37;64.28;98998.23;105847;1279;115439;-65
2022/07/11 05:27:09;;;;;;;7.60;2.60;;;;;;;13.48;64.24;98999.11;105972;1279;96726;-64
2022/07/11 05:29:37;;;;;;;6.70;2.10;;;;;;;13.60;64.24;98999.40;105892;1279;108356;-64
2022/07/11 05:32:06;;;;;;;7.70;2.50;;;;;;;13.71;64.19;99000.40;105980;1279;99121;-64
2022/07/11 05:34:35;;;;;;;9.10;2.40;;;;;;;13.77;64.31;98996.98;105903;1279;98382;-65
2022/07/11 05:37:03;;;;;;;8.90;2.80;;;;;;;13.86;64.21;98998.37;105906;1279;115460;-64
2022/07/11 05:39:31;;;;;;;8.00;2.20;;;;;;;13.94;64.20;98996.45;105949;1279;99817;-65
2022/07/11 05:42:00;;;;;;;6.70;2.30;;;;;;;13.97;64.22;98995.57;105908;1279;108302;-65
2022/07/11 05:44:28;;;;;;;7.90;2.30;;;;;;;14.03;64.20;98996.55;105917;1279;99335;-64
2022/07/11 05:47:01;;;;;;;6.10;2.20;;;;;;;14.07;64.22;98993.67;105886;1279;99182;-65
2022/07/11 05:49:31;;;;;;;4.60;1.90;;;;;;;14.12;64.28;98992.16;105868;1279;111475;-66
2022/07/11 05:52:00;;;;;;;5.80;1.80;;;;;;;14.15;64.30;98989.20;105983;1279;99443;-64
2022/07/11 05:54:28;;;;;;;4.70;1.70;;;;;;;14.22;64.22;98993.11;105901;1279;108413;-65
2022/07/11 05:56:57;;;;;;;5.90;2.20;;;;;;;14.27;64.22;98990.16;105945;1279;99238;-66
2022/07/11 05:59:24;;;;;;;5.10;2.10;;;;;;;14.32;64.22;98989.38;105970;1279;99324;-64
2022/07/11 06:01:53;;;;;;;7.40;2.50;;;;;;;14.34;64.13;98984.90;106014;1279;112603;-64
2022/07/11 06:04:21;;;;;;;4.40;2.30;;;;;;;14.37;64.18;98989.81;105867;1279;99227;-65
2022/07/11 06:06:50;;;;;;;6.20;2.50;;;;;;;14.44;64.14;98991.83;105882;1279;108201;-65
2022/07/11 06:09:18;;;;;;;8.20;2.00;;;;;;;14.55;64.05;98990.51;105885;1279;99327;-65
2022/07/11 06:11:46;;;;;;;5.50;1.90;;;;;;;14.61;64.02;98989.59;105902;1279;99913;-66
2022/07/11 06:14:15;;;;;;;6.10;1.90;;;;;;;14.68;64.02;98988.81;105874;1279;113403;-66
2022/07/11 06:16:42;;;;;;;6.80;1.90;;;;;;;14.81;64.10;98992.26;105862;1279;99359;-65
2022/07/11 06:19:11;;;;;;;8.60;2.10;;;;;;;14.96;63.97;98993.09;105854;1279;108352;-65
2022/07/11 06:21:39;;;;;;;4.80;2.00;;;;;;;15.00;63.96;98991.41;105865;1279;99231;-63
2022/07/11 06:24:07;;;;;;;6.70;2.70;;;;;;;15.02;63.83;98996.41;105937;1279;99320;-65
2022/07/11 06:26:36;;;;;;;3.50;1.70;;;;;;;14.99;63.94;99000.43;105961;1279;113242;-65
2022/07/11 06:29:04;;;;;;;6.70;1.70;;;;;;;15.05;63.89;99001.73;105924;1279;96559;-65
2022/07/11 06:31:32;;;;;;;2.50;1.70;;;;;;;15.08;63.81;99002.91;105941;1279;107788;-67
2022/07/11 06:34:01;;;;;;;3.80;2.10;;;;;;;15.10;63.83;99004.88;105898;1279;99475;-65
2022/07/11 06:36:29;;;;;;;4.90;2.00;;;;;;;15.20;63.72;99003.41;105800;1279;96584;-65
2022/07/11 06:38:57;;;;;;;3.90;2.10;;;;;;;15.26;63.87;99007.88;105915;1279;112404;-66
2022/07/11 06:41:25;;;;;;;6.40;2.10;;;;;;;15.34;63.87;99003.70;105879;1279;99315;-64
2022/07/11 06:43:53;;;;;;;5.10;1.70;;;;;;;15.47;63.91;99000.35;105864;1279;108659;-65
2022/07/11 06:46:21;;;;;;;8.80;1.70;;;;;;;15.56;63.82;98998.38;105808;1279;97763;-64
2022/07/11 06:48:50;;;;;;;10.50;1.80;;;;;;;15.69;63.73;98997.39;105954;1279;96739;-66
2022/07/11 06:51:18;;;;;;;7.80;1.90;;;;;;;15.80;63.80;98994.21;105984;1279;112399;-65
2022/07/11 06:53:46;;;;;;;8.60;2.10;;;;;;;15.97;63.68;98993.46;105942;1279;99308;-65
2022/07/11 06:56:14;;;;;;;7.80;2.00;;;;;;;16.19;63.70;98985.80;105902;1279;108182;-65
2022/07/11 06:58:42;;;;;;;7.80;2.00;;;;;;;16.49;63.67;98990.77;106007;1279;97707;-66
2022/07/11 07:01:10;;;;;;;7.20;1.90;;;;;;;16.85;63.63;98991.53;105918;1279;99339;-66
2022/07/11 07:03:39;;;;;;;7.50;2.10;;;;;;;17.20;63.41;98986.51;105899;1279;112435;-65
2022/07/11 07:06:08;;;;;;;6.50;1.60;;;;;;;18.12;62.38;98980.38;105926;1279;99240;-65
2022/07/11 07:08:36;;;;;;;4.40;1.60;;;;;;;19.17;61.89;98980.34;105874;1279;108307;-65
2022/07/11 07:11:04;;;;;;;8.30;1.50;;;;;;;19.98;61.70;98971.59;105869;1279;96629;-66
2022/07/11 07:13:36;;;;;;;3.40;1.30;;;;;;;20.62;61.77;98974.59;105880;1279;99244;-65
2022/07/11 07:16:06;;;;;;;3.30;1.70;;;;;;;21.82;61.95;98972.17;105939;1279;113207;-65
2022/07/11 07:18:37;;;;;;;3.60;1.30;;;;;;;22.26;62.26;98976.38;105927;1279;97935;-65
2022/07/11 07:21:06;;;;;;;5.10;1.60;;;;;;;22.53;61.77;98976.17;105867;1279;106019;-68
2022/07/11 07:23:34;;;;;;;5.00;1.40;;;;;;;22.39;61.80;98978.65;105822;1279;99233;-68
2022/07/11 07:26:03;;;;;;;4.20;1.20;;;;;;;22.09;61.55;98977.37;105446;1279;99114;-66
2022/07/11 07:28:31;;;;;;;4.70;1.60;;;;;;;21.69;61.69;98975.41;105832;1279;113349;-64
2022/07/11 07:30:59;;;;;;;5.30;1.50;;;;;;;21.32;61.26;98979.13;105895;1278;99240;-64
2022/07/11 07:33:28;;;;;;;6.30;1.90;;;;;;;21.26;61.61;98974.66;105878;1279;108345;-64
2022/07/11 07:36:13;;;;;;;8.50;1.90;;;;;;;21.16;61.28;98975.49;105752;1279;96664;-64
2022/07/11 07:38:46;;;;;;;6.20;1.40;;;;;;;21.00;60.94;98977.35;105815;1279;99232;-64
2022/07/11 07:41:15;;;;;;;9.70;1.80;;;;;;;20.80;60.81;98979.52;105851;1279;113180;-66
2022/07/11 07:43:43;;;;;;;6.60;1.80;;;;;;;20.51;60.75;98978.11;105800;1279;97613;-64
2022/07/11 07:46:11;;;;;;;5.70;1.50;;;;;;;20.21;60.68;98976.02;105798;1279;108429;-65
2022/07/11 07:48:42;;;;;;;5.90;1.50;;;;;;;20.01;60.57;98972.91;105834;1278;99248;-65
2022/07/11 07:51:10;;;;;;;5.80;1.20;;;;;;;19.96;60.32;98971.69;105932;1278;99201;-65
2022/07/11 07:53:39;;;;;;;3.90;1.50;;;;;;;19.89;59.95;98970.02;105888;1279;112736;-65
2022/07/11 07:56:08;;;;;;;5.60;1.40;;;;;;;19.65;59.86;98971.64;105850;1279;97956;-65
2022/07/11 07:58:36;;;;;;;5.20;1.30;;;;;;;19.37;59.62;98970.45;105810;1279;107724;-64
2022/07/11 08:03:54;;;;;;;4.10;1.10;;;;;;;18.87;59.48;98970.99;105897;1279;99244;-64
2022/07/11 08:06:23;;;;;;;5.20;1.40;;;;;;;18.71;59.57;98976.85;105865;1278;114078;-64
2022/07/11 08:08:51;;;;;;;5.80;2.00;;;;;;;18.47;59.13;98992.70;105882;1279;99247;-65
2022/07/11 08:11:19;;;;;;;13.10;2.20;;;;;;;18.13;58.91;99012.79;105819;1279;108814;-63
2022/07/11 08:14:04;;;;;;;6.50;1.60;;;;;;;17.78;59.00;99010.19;105846;1279;97928;-65
2022/07/11 08:16:32;;;;;;;8.80;2.40;;;;;;;17.49;59.20;99001.11;105827;1279;99272;-65
2022/07/11 08:19:04;;;;;;;11.60;2.80;;;;;;;17.38;59.33;98992.13;105835;1279;113371;-66
2022/07/11 08:21:34;;;;;;;19.90;8.30;;;;;;;17.29;59.44;98985.58;105845;1279;99252;-64
2022/07/11 08:24:04;;;;;;;8.90;3.00;;;;;;;17.23;59.42;98976.47;105781;1279;107679;-65
2022/07/11 08:26:32;;;;;;;10.80;2.00;;;;;;;17.19;59.20;98976.33;105692;1279;99306;-65
2022/07/11 08:29:03;;;;;;;8.10;2.40;;;;;;;17.13;59.11;98978.07;105859;1279;99211;-64
2022/07/11 08:31:32;;;;;;;3.40;1.70;;;;;;;17.03;59.07;98985.11;105752;1279;112815;-63
2022/07/11 08:34:03;;;;;;;5.30;1.90;;;;;;;16.95;58.89;98992.38;105852;1278;99258;-64
2022/07/11 08:36:34;;;;;;;7.10;1.80;;;;;;;16.81;58.87;98993.86;105789;1277;108283;-65
2022/07/11 08:39:05;;;;;;;6.90;2.10;;;;;;;16.90;58.81;98993.22;105826;1277;99309;-63
2022/07/11 08:41:42;;;;;;;6.60;1.80;;;;;;;17.84;58.54;98988.52;105859;1278;99228;-63
2022/07/11 08:44:15;;;;;;;4.90;1.70;;;;;;;19.12;58.59;98982.35;105885;1279;113692;-64
2022/07/11 08:46:43;;;;;;;7.20;1.20;;;;;;;20.34;58.62;98977.63;105858;1278;97685;-64
2022/07/11 08:49:12;;;;;;;4.90;1.60;;;;;;;21.53;58.96;98974.73;105908;1279;107815;-66
2022/07/11 08:51:41;;;;;;;3.60;1.70;;;;;;;22.67;58.52;98970.09;105829;1279;99482;-66
2022/07/11 08:54:12;;;;;;;5.10;1.50;;;;;;;23.65;58.33;98967.23;105902;1279;99202;-64
2022/07/11 08:56:45;;;;;;;5.10;1.70;;;;;;;24.50;58.31;98959.80;105881;1277;112759;-64
2022/07/11 08:59:17;;;;;;;5.40;1.50;;;;;;;24.96;58.49;98946.75;105894;1278;96619;-64
2022/07/11 09:01:49;;;;;;;4.40;1.50;;;;;;;24.82;58.58;98956.11;105846;1279;108385;-64
2022/07/11 09:04:19;;;;;;;6.20;1.80;;;;;;;24.35;58.32;98964.30;105844;1278;99325;-65
2022/07/11 09:06:47;;;;;;;8.50;2.10;;;;;;;23.74;58.30;98969.14;105912;1279;96606;-65
2022/07/11 09:09:15;;;;;;;4.50;1.50;;;;;;;23.10;58.17;98969.66;105890;1279;113691;-64
2022/07/11 09:11:53;;;;;;;5.80;1.70;;;;;;;22.39;58.17;98971.06;105872;1278;99909;-64
2022/07/11 09:14:23;;;;;;;4.50;1.50;;;;;;;21.83;57.98;98968.98;105853;1279;107751;-65
2022/07/11 09:17:00;;;;;;;3.90;1.40;;;;;;;21.24;57.32;98970.59;105872;1279;99292;-65
2022/07/11 09:19:31;;;;;;;7.60;1.60;;;;;;;20.50;57.02;98973.05;105878;1279;99264;-65
2022/07/11 09:25:21;;;;;;;4.10;1.70;;;;;;;19.52;56.81;98973.26;105868;1279;98343;-63
2022/07/11 09:27:53;;;;;;;2.00;1.10;;;;;;;19.19;56.74;98979.41;105854;1278;108359;-66
2022/07/11 09:30:35;;;;;;;6.00;1.60;;;;;;;18.90;56.93;98980.03;105868;1279;99271;-67
2022/07/11 09:33:06;;;;;;;5.30;2.00;;;;;;;18.62;56.66;98977.98;105870;1279;99263;-64
2022/07/11 09:35:45;;;;;;;9.00;2.20;;;;;;;18.58;56.56;98976.85;105885;1279;113448;-63
2022/07/11 09:38:17;;;;;;;6.90;1.70;;;;;;;18.81;56.19;98970.36;105927;1278;99356;-66
2022/07/11 09:40:48;;;;;;;6.90;2.60;;;;;;;19.10;56.25;98962.27;105876;1279;108355;-64
2022/07/11 09:43:25;;;;;;;5.60;1.70;;;;;;;19.20;56.34;98961.58;105906;1278;99338;-64
2022/07/11 09:46:05;;;;;;;3.10;1.60;;;;;;;19.43;55.99;98955.05;105877;1278;99315;-65
2022/07/11 09:48:33;;;;;;;4.60;1.10;;;;;;;19.83;56.23;98950.45;105883;1279;112540;-63
2022/07/11 09:51:04;;;;;;;1.30;1.00;;;;;;;20.32;56.32;98949.35;105854;1278;96618;-64
2022/07/11 09:53:32;;;;;;;4.20;0.80;;;;;;;20.68;55.76;98949.48;105846;1278;108374;-65
2022/07/11 09:56:06;;;;;;;1.30;0.60;;;;;;;20.73;55.81;98953.11;105839;1280;99342;-65
2022/07/11 09:58:34;;;;;;;1.40;0.60;;;;;;;20.54;55.54;98946.69;105857;1278;96580;-66
2022/07/11 10:01:02;;;;;;;2.30;0.50;;;;;;;20.42;55.17;98938.90;105837;1277;113444;-64
2022/07/11 10:03:32;;;;;;;1.70;0.70;;;;;;;20.15;55.12;98941.17;105883;1279;99246;-64
2022/07/11 10:06:21;;;;;;;6.00;1.40;;;;;;;19.79;54.73;98938.59;105842;1278;108252;-64
2022/07/11 10:08:52;;;;;;;4.10;1.30;;;;;;;19.59;54.82;98943.20;105864;1279;99339;-64
2022/07/11 10:11:20;;;;;;;3.70;1.10;;;;;;;19.44;54.89;98945.02;105941;1279;99645;-64
2022/07/11 10:13:50;;;;;;;2.90;1.30;;;;;;;19.37;54.81;98950.13;105871;1279;113416;-64
2022/07/11 10:16:38;;;;;;;1.10;0.70;;;;;;;19.23;54.61;98956.90;105818;1278;99248;-64
2022/07/11 10:19:30;;;;;;;2.70;1.10;;;;;;;19.03;54.52;98964.80;105810;1278;108412;-64
2022/07/11 10:22:16;;;;;;;4.10;2.20;;;;;;;18.96;54.57;98970.84;105873;1279;99078;-65
2022/07/11 10:24:54;;;;;;;7.70;2.30;;;;;;;18.77;54.34;98974.02;105889;1279;99330;-65
2022/07/11 10:28:19;;;;;;;5.50;2.20;;;;;;;18.68;54.40;98978.76;105920;1278;112870;-64
2022/07/11 10:30:59;;;;;;;8.50;2.60;;;;;;;18.60;54.19;98980.23;105187;1285;99334;-64
2022/07/11 10:33:29;;;;;;;7.50;2.70;;;;;;;18.47;54.01;98981.39;105110;1285;108450;-66
2022/07/11 10:35:58;;;;;;;5.80;2.00;;;;;;;18.40;54.01;98988.40;105516;1279;99371;-63
2022/07/11 10:38:26;;;;;;;6.40;2.20;;;;;;;18.40;54.00;98989.83;105828;1279;99763;-64
2022/07/11 10:40:57;;;;;;;4.20;2.10;;;;;;;18.44;54.00;98992.19;105900;1278;113301;-65
2022/07/11 10:43:36;;;;;;;4.80;1.90;;;;;;;18.55;54.02;98988.10;105920;1279;98954;-64
2022/07/11 10:46:06;;;;;;;3.70;1.70;;;;;;;18.64;54.02;98989.09;105822;1277;107828;-67
2022/07/11 10:48:57;;;;;;;6.30;1.80;;;;;;;18.76;53.87;98991.83;105907;1277;99329;-65
2022/07/11 10:51:42;;;;;;;7.70;2.00;;;;;;;18.84;53.76;98989.69;105836;1279;99266;-65
2022/07/11 10:54:42;;;;;;;6.40;1.80;;;;;;;18.97;53.83;98987.56;105801;1279;113407;-65
2022/07/11 10:57:42;;;;;;;9.00;2.20;;;;;;;19.08;53.67;98983.73;105909;1279;99256;-65
2022/07/11 11:00:16;;;;;;;7.20;1.90;;;;;;;19.23;53.64;98975.00;105848;1279;107562;-64
2022/07/11 11:03:06;;;;;;;6.60;1.90;;;;;;;19.32;53.60;98969.73;105850;1279;99354;-65
2022/07/11 11:05:44;;;;;;;4.60;1.40;;;;;;;19.42;53.67;98964.16;105878;1278;99226;-65
2022/07/11 11:08:40;;;;;;;7.30;2.10;;;;;;;19.46;53.45;98960.96;105851;1279;113378;-65
2022/07/11 11:11:21;;;;;;;5.60;1.80;;;;;;;19.65;53.54;98962.70;105811;1279;99407;-65
2022/07/11 11:14:17;;;;;;;6.00;1.90;;;;;;;19.79;53.27;98957.67;105780;1279;108805;-65
2022/07/11 11:16:47;;;;;;;8.00;2.00;;;;;;;19.94;53.37;98956.38;105798;1279;100001;-64
2022/07/11 11:19:46;;;;;;;4.60;1.60;;;;;;;19.98;53.29;98953.94;105835;1279;99366;-66
2022/07/11 11:22:16;;;;;;;10.80;2.50;;;;;;;19.92;52.94;98946.92;105865;1280;113829;-65
2022/07/11 11:24:50;;;;;;;5.50;1.70;;;;;;;19.83;52.95;98950.45;105838;1278;99292;-65
2022/07/11 11:28:04;;;;;;;5.10;1.80;;;;;;;19.84;52.94;98955.38;105865;1279;108254;-65
2022/07/11 11:30:33;;;;;;;7.40;2.10;;;;;;;19.93;52.73;98963.33;105872;1279;99421;-66
2022/07/11 11:33:14;;;;;;;3.80;1.50;;;;;;;19.94;52.63;98966.83;105918;1279;99227;-66
2022/07/11 11:35:42;;;;;;;3.60;1.60;;;;;;;19.97;52.46;98961.52;105823;1279;113462;-64
2022/07/11 11:38:11;;;;;;;3.00;1.60;;;;;;;19.99;52.50;98965.02;105920;1279;96640;-64
2022/07/11 11:40:51;;;;;;;4.60;1.40;;;;;;;19.96;52.33;98978.48;105907;1279;108835;-63
2022/07/11 11:43:25;;;;;;;9.40;1.60;;;;;;;19.76;51.59;98995.30;105897;1278;99423;-65